Time;durP1;ratioP1;P1;durP2;ratioP2;P2;SDS_P1;SDS_P2;PMS_P1;PMS_P2;Temp;Humidity;BMP_temperature;BMP_pressure;BME280_temperature;BME280_humidity;BME280_pressure;Samples;Min_cycle;Max_cycle;Signal;HPM_P1;HPM_P2
2022/01/28 00:00:58;;;;;;;;;62.00;50.25;;;;;8.48;74.61;102577.34;4959401;28;47273;-62
2022/01/28 00:03:24;;;;;;;;;66.25;49.75;;;;;8.48;74.39;102573.91;4977139;28;45851;-61
2022/01/28 00:05:49;;;;;;;;;69.50;51.50;;;;;8.48;74.64;102574.72;4976540;28;54734;-63
2022/01/28 00:08:14;;;;;;;;;69.00;52.50;;;;;8.48;74.33;102584.38;4977228;28;47992;-62
2022/01/28 00:10:40;;;;;;;;;73.00;53.50;;;;;8.46;74.17;102585.28;4979443;28;69438;-62
2022/01/28 00:39:31;;;;;;;;;70.75;54.75;;;;;8.36;74.38;102609.34;4980084;28;45300;-62
2022/01/28 00:41:56;;;;;;;;;75.25;55.50;;;;;8.35;74.39;102618.13;4978929;28;70940;-62
2022/01/28 00:44:22;;;;;;;;;73.00;55.75;;;;;8.34;74.39;102630.38;4978843;28;69972;-62
2022/01/28 00:46:47;;;;;;;;;75.75;57.25;;;;;8.34;73.97;102627.75;4979185;28;60187;-62
2022/01/28 00:49:12;;;;;;;;;72.00;54.50;;;;;8.33;74.36;102626.06;4979733;28;45672;-62
2022/01/28 00:51:38;;;;;;;;;69.00;52.75;;;;;8.31;74.36;102622.66;4978787;28;68312;-60
2022/01/28 00:54:03;;;;;;;;;74.50;57.00;;;;;8.28;74.42;102626.25;4978964;28;57698;-62
2022/01/28 00:56:29;;;;;;;;;73.50;54.75;;;;;8.27;74.61;102626.34;4978922;28;63707;-63
2022/01/28 00:58:54;;;;;;;;;72.25;54.50;;;;;8.28;74.52;102622.81;4979015;28;60754;-61
2022/01/28 01:01:19;;;;;;;;;67.50;52.75;;;;;8.29;74.45;102627.97;4978632;28;70158;-60
2022/01/28 01:03:45;;;;;;;;;68.25;53.50;;;;;8.29;74.33;102630.56;4979496;28;45460;-63
2022/01/28 01:06:10;;;;;;;;;67.25;53.00;;;;;8.28;74.50;102630.66;4978997;28;60488;-63
2022/01/28 01:08:36;;;;;;;;;76.00;56.00;;;;;8.28;74.58;102638.53;4979074;28;59585;-62
2022/01/28 01:11:02;;;;;;;;;72.25;55.25;;;;;8.28;74.82;102630.66;4979330;28;46196;-62
2022/01/28 01:13:28;;;;;;;;;67.50;50.00;;;;;8.28;74.65;102633.28;4978868;28;45369;-62
2022/01/28 01:15:57;;;;;;;;;65.50;51.00;;;;;8.28;74.50;102638.53;4979478;28;45339;-64
2022/01/28 01:18:34;;;;;;;;;64.75;50.75;;;;;8.28;74.63;102641.97;4979390;28;45302;-62
2022/01/28 01:21:05;;;;;;;;;69.50;53.25;;;;;8.29;74.66;102648.06;4977910;28;46189;-62
2022/01/28 01:23:36;;;;;;;;;70.75;52.00;;;;;8.30;74.63;102652.41;4979278;28;45762;-63
2022/01/28 01:28:32;;;;;;;;;70.00;52.75;;;;;8.30;74.50;102658.47;4961774;28;45293;-61
2022/01/28 01:30:59;;;;;;;;;68.25;51.50;;;;;8.30;74.51;102650.63;4961382;28;46935;-61
2022/01/28 01:33:26;;;;;;;;;68.50;53.00;;;;;8.31;74.71;102651.47;4978954;28;45824;-61
2022/01/28 01:35:51;;;;;;;;;72.00;52.00;;;;;8.32;74.59;102650.56;4979075;28;45378;-61
2022/01/28 01:38:17;;;;;;;;;67.25;48.50;;;;;8.34;74.46;102647.84;4978173;28;65153;-62
2022/01/28 01:40:48;;;;;;;;;60.50;45.25;;;;;8.36;74.64;102657.38;4978894;28;45328;-62
2022/01/28 01:43:28;;;;;;;;;64.50;49.75;;;;;8.37;74.64;102656.44;4978942;28;45326;-63
2022/01/28 01:53:47;;;;;;;;;63.50;50.00;;;;;8.41;74.31;102675.47;4963536;28;45667;-60
2022/01/28 01:56:12;;;;;;;;;62.00;48.75;;;;;8.38;74.39;102673.88;4978164;28;54656;-62
2022/01/28 01:58:38;;;;;;;;;62.00;50.00;;;;;8.40;74.20;102685.13;4945038;28;46269;-62
2022/01/28 02:01:03;;;;;;;;;67.25;50.75;;;;;8.39;74.30;102685.19;4960992;28;47351;-63
2022/01/28 02:03:29;;;;;;;;;69.50;52.00;;;;;8.38;74.41;102691.34;4977827;28;63747;-62
2022/01/28 02:05:58;;;;;;;;;63.75;46.25;;;;;8.37;74.63;102695.75;4977927;28;61723;-63
2022/01/28 02:08:27;;;;;;;;;56.50;39.50;;;;;8.36;74.68;102698.41;4977209;28;45498;-61
2022/01/28 02:10:58;;;;;;;;;50.25;39.00;;;;;8.33;74.91;102696.78;4961068;28;46131;-61
2022/01/28 02:13:27;;;;;;;;;36.00;29.25;;;;;8.35;74.98;102691.47;4978232;28;45861;-62
2022/01/28 02:15:53;;;;;;;;;30.25;22.25;;;;;8.34;74.99;102697.63;4978529;28;45409;-61
2022/01/28 02:18:19;;;;;;;;;35.00;25.25;;;;;8.32;75.04;102700.31;4961178;28;45251;-62
2022/01/28 02:20:48;;;;;;;;;27.50;25.75;;;;;8.30;75.13;102695.13;4978288;28;45369;-62
2022/01/28 02:23:14;;;;;;;;;31.50;24.25;;;;;8.30;75.20;102692.53;4961259;28;45339;-62
2022/01/28 02:25:39;;;;;;;;;25.00;24.25;;;;;8.30;75.11;102700.38;4978167;28;45390;-61
2022/01/28 02:28:07;;;;;;;;;31.50;25.75;;;;;8.29;75.22;102692.59;4978060;28;45511;-62
2022/01/28 02:30:33;;;;;;;;;30.25;21.50;;;;;8.28;75.04;102701.38;4960936;28;45416;-62
2022/01/28 02:33:10;;;;;;;;;24.75;21.00;;;;;8.28;75.16;102706.63;4977434;28;45398;-62
2022/01/28 02:35:35;;;;;;;;;23.50;21.25;;;;;8.27;75.16;102708.38;4977653;28;45246;-63
2022/01/28 02:38:01;;;;;;;;;24.00;21.25;;;;;8.27;75.15;102712.78;4978133;28;45228;-63
2022/01/28 02:40:26;;;;;;;;;26.50;22.50;;;;;8.25;74.99;102712.00;4977168;28;63244;-62
2022/01/28 02:43:03;;;;;;;;;28.00;22.00;;;;;8.24;74.99;102699.81;4977919;28;45413;-62
2022/01/28 02:45:35;;;;;;;;;26.75;17.75;;;;;8.23;75.11;102701.56;4960519;28;45338;-62
2022/01/28 02:48:05;;;;;;;;;22.50;20.75;;;;;8.22;74.96;102706.88;4961602;28;45236;-61
2022/01/28 02:50:38;;;;;;;;;18.50;16.50;;;;;8.21;75.03;102711.28;4977734;28;46514;-62
2022/01/28 02:53:06;;;;;;;;;23.75;21.00;;;;;8.20;75.03;102713.94;4977324;28;45825;-61
2022/01/28 02:55:36;;;;;;;;;30.25;22.75;;;;;8.19;75.06;102723.59;4977910;28;45389;-62
2022/01/28 02:58:25;;;;;;;;;24.50;20.00;;;;;8.21;75.09;102715.66;4977875;28;45554;-60
2022/01/28 03:00:49;;;;;;;;;22.75;19.25;;;;;8.19;75.40;102717.50;4977024;28;45498;-62
2022/01/28 03:03:15;;;;;;;;;33.00;25.00;;;;;8.19;75.05;102714.88;4977653;28;45342;-62
2022/01/28 03:05:41;;;;;;;;;26.00;21.00;;;;;8.17;75.29;102704.47;4977695;28;45444;-63
2022/01/28 03:08:06;;;;;;;;;27.00;22.25;;;;;8.16;75.21;102693.13;4959747;28;45668;-62
2022/01/28 03:15:33;;;;;;;;;25.25;21.00;;;;;8.11;75.18;102695.09;4977549;28;45837;-61
2022/01/28 03:18:14;;;;;;;;;30.50;21.00;;;;;8.10;75.32;102692.56;4977589;28;45557;-62
2022/01/28 03:23:06;;;;;;;;;20.75;19.50;;;;;8.06;75.20;102691.81;4977268;28;45351;-62
2022/01/28 03:25:34;;;;;;;;;28.75;21.50;;;;;8.02;75.36;102700.72;4959882;28;45462;-62
2022/01/28 03:28:00;;;;;;;;;26.75;19.25;;;;;7.98;75.42;102700.03;4959740;28;45433;-62
2022/01/28 03:30:25;;;;;;;;;21.00;17.00;;;;;7.96;75.56;102696.63;4977251;28;45420;-62
2022/01/28 03:32:51;;;;;;;;;26.50;19.75;;;;;7.94;75.62;102703.69;4958980;28;62043;-61
2022/01/28 03:35:18;;;;;;;;;22.25;19.25;;;;;7.94;75.74;102705.47;4976701;28;57489;-62
2022/01/28 03:37:43;;;;;;;;;23.00;19.00;;;;;7.94;75.81;102705.47;4975919;28;45416;-61
2022/01/28 03:40:09;;;;;;;;;20.50;16.00;;;;;7.94;75.63;102708.09;4976218;28;70424;-62
2022/01/28 03:42:35;;;;;;;;;26.25;21.75;;;;;7.93;75.71;102701.16;4976474;28;45355;-61
2022/01/28 03:45:01;;;;;;;;;25.00;20.50;;;;;7.92;75.81;102713.38;4959391;28;45251;-62
2022/01/28 03:47:26;;;;;;;;;28.25;20.50;;;;;7.92;75.70;102707.28;4977029;28;45643;-62
2022/01/28 03:49:52;;;;;;;;;25.00;19.75;;;;;7.94;75.82;102708.09;4958704;28;69443;-62
2022/01/28 03:52:17;;;;;;;;;50.50;39.75;;;;;7.95;75.76;102704.56;4958991;28;45427;-63
2022/01/28 03:54:42;;;;;;;;;46.00;33.75;;;;;7.96;75.70;102709.72;4958969;28;60569;-62
2022/01/28 03:57:08;;;;;;;;;52.75;38.50;;;;;7.96;75.55;102717.56;4976201;28;64556;-63
2022/01/28 03:59:34;;;;;;;;;37.25;32.00;;;;;7.96;75.43;102720.19;4976703;28;45980;-62
2022/01/28 04:01:59;;;;;;;;;41.00;27.00;;;;;7.96;75.83;102722.78;4976873;28;45167;-62
2022/01/28 04:12:42;;;;;;;;;20.25;19.00;;;;;7.95;74.94;102730.72;4976694;28;45932;-61
2022/01/28 04:17:52;;;;;;;;;27.00;21.00;;;;;7.93;74.98;102729.94;4976850;28;45455;-61
2022/01/28 04:20:17;;;;;;;;;23.75;19.00;;;;;7.92;74.92;102731.69;4976481;28;46008;-62
2022/01/28 04:22:42;;;;;;;;;24.25;20.25;;;;;7.91;75.13;102729.16;4976625;28;45446;-61
2022/01/28 04:25:08;;;;;;;;;21.50;20.25;;;;;7.93;74.90;102735.19;4959500;28;45513;-62
2022/01/28 04:27:33;;;;;;;;;28.25;23.00;;;;;7.90;74.86;102725.66;4976576;28;45378;-63
2022/01/28 04:29:59;;;;;;;;;22.25;18.50;;;;;7.91;74.73;102718.69;4975727;28;63272;-61
2022/01/28 04:32:27;;;;;;;;;21.50;15.75;;;;;7.91;74.66;102723.91;4976530;28;45449;-60
2022/01/28 04:34:55;;;;;;;;;22.25;19.25;;;;;7.90;74.87;102716.97;4976427;28;45378;-61
2022/01/28 04:47:32;;;;;;;;;24.00;19.75;;;;;7.89;74.90;102736.22;4941807;28;45390;-62
2022/01/28 05:16:37;;;;;;;;;21.50;16.50;;;;;7.96;74.56;102763.81;4979507;28;45331;-62
2022/01/28 05:27:13;;;;;;;;;24.75;21.00;;;;;7.93;74.59;102790.16;4979340;28;45325;-62
2022/01/28 05:29:39;;;;;;;;;31.75;20.75;;;;;7.92;74.34;102784.03;4979164;28;45238;-61
2022/01/28 05:32:08;;;;;;;;;28.00;19.50;;;;;7.92;74.43;102791.06;4978852;28;46312;-62
2022/01/28 05:34:34;;;;;;;;;24.00;20.75;;;;;7.93;74.33;102787.53;4979065;28;45528;-63
2022/01/28 05:36:59;;;;;;;;;25.25;19.50;;;;;7.93;74.21;102790.16;4978549;28;62680;-62
2022/01/28 05:39:25;;;;;;;;;22.50;18.00;;;;;7.91;74.23;102786.75;4978481;28;60692;-62
2022/01/28 05:41:50;;;;;;;;;25.00;19.25;;;;;7.90;74.23;102792.88;4978257;28;45412;-62
2022/01/28 05:44:16;;;;;;;;;27.75;20.00;;;;;7.90;74.41;102800.75;4978830;28;45393;-62
2022/01/28 05:46:41;;;;;;;;;21.50;15.50;;;;;7.91;74.34;102810.31;4978912;28;45487;-62
2022/01/28 05:49:07;;;;;;;;;27.00;22.25;;;;;7.91;74.33;102807.69;4978879;28;45334;-61
2022/01/28 05:51:32;;;;;;;;;22.50;20.00;;;;;7.90;74.29;102809.44;4961026;28;50253;-61
2022/01/28 05:53:58;;;;;;;;;23.25;19.25;;;;;7.90;74.28;102812.06;4943632;28;71366;-62
2022/01/28 05:56:26;;;;;;;;;28.75;20.25;;;;;7.92;74.27;102819.84;4978666;28;45385;-62
2022/01/28 05:58:52;;;;;;;;;25.50;20.25;;;;;7.92;74.20;102828.53;4978493;28;45368;-62
2022/01/28 06:01:17;;;;;;;;;31.50;23.50;;;;;7.90;74.28;102827.75;4978213;28;46216;-62
2022/01/28 06:03:44;;;;;;;;;26.75;22.25;;;;;7.89;74.32;102823.44;4959827;28;71023;-62
2022/01/28 06:06:18;;;;;;;;;25.75;22.25;;;;;7.87;74.38;102836.59;4977703;28;45323;-62
2022/01/28 06:08:44;;;;;;;;;24.25;18.50;;;;;7.86;74.50;102832.28;4978440;28;45405;-62
2022/01/28 06:11:09;;;;;;;;;25.75;20.50;;;;;7.87;74.47;102833.13;4978152;28;46503;-62
2022/01/28 06:13:35;;;;;;;;;32.25;23.00;;;;;7.86;74.26;102834.88;4977511;28;62831;-62
2022/01/28 06:16:00;;;;;;;;;30.75;21.50;;;;;7.84;74.39;102841.94;4977257;28;67583;-63
2022/01/28 06:18:25;;;;;;;;;27.00;22.50;;;;;7.85;74.61;102837.56;4977246;28;66342;-61
2022/01/28 06:20:51;;;;;;;;;35.00;25.00;;;;;7.84;74.65;102855.03;4977217;28;68334;-63
2022/01/28 06:23:17;;;;;;;;;24.00;22.25;;;;;7.86;74.36;102837.50;4977665;28;45516;-61
2022/01/28 06:25:44;;;;;;;;;35.25;23.50;;;;;7.85;74.42;102835.81;4977971;28;45248;-61
2022/01/28 06:28:09;;;;;;;;;31.00;21.75;;;;;7.85;74.64;102834.94;4960758;28;45636;-62
2022/01/28 06:30:34;;;;;;;;;30.00;24.50;;;;;7.84;74.61;102841.94;4976804;28;69981;-62
2022/01/28 06:33:00;;;;;;;;;35.00;21.00;;;;;7.83;74.53;102832.41;4977059;28;64333;-61
2022/01/28 06:35:25;;;;;;;;;29.50;22.00;;;;;7.83;74.53;102827.16;4976884;28;61607;-61
2022/01/28 06:37:50;;;;;;;;;43.25;33.25;;;;;7.83;74.45;102821.06;4977463;28;64008;-64
2022/01/28 06:40:16;;;;;;;;;37.25;29.75;;;;;7.80;74.55;102822.03;4976838;28;72230;-62
2022/01/28 06:42:41;;;;;;;;;45.25;35.75;;;;;7.79;74.52;102820.34;4978033;28;45309;-62
2022/01/28 06:45:07;;;;;;;;;47.25;38.00;;;;;7.80;74.47;102823.78;4977874;28;45898;-62
2022/01/28 06:47:34;;;;;;;;;53.00;40.50;;;;;7.79;74.34;102833.44;4976635;28;45473;-62
2022/01/28 06:50:00;;;;;;;;;52.25;41.00;;;;;7.78;74.29;102834.34;4977693;28;45602;-61
2022/01/28 06:52:25;;;;;;;;;53.75;40.00;;;;;7.76;74.45;102837.91;4959719;28;45457;-62
2022/01/28 06:54:51;;;;;;;;;47.75;36.75;;;;;7.76;74.50;102838.78;4977385;28;45732;-61
2022/01/28 06:57:16;;;;;;;;;49.75;36.25;;;;;7.78;74.47;102844.81;4976931;28;59860;-63
2022/01/28 06:59:42;;;;;;;;;53.25;38.00;;;;;7.78;74.58;102843.94;4976559;28;69180;-61
2022/01/28 07:02:07;;;;;;;;;55.50;41.50;;;;;7.78;74.40;102844.81;4959893;28;45777;-61
2022/01/28 07:04:32;;;;;;;;;59.50;44.00;;;;;7.77;74.56;102853.56;4960258;28;45789;-63
2022/01/28 07:06:58;;;;;;;;;61.75;48.00;;;;;7.77;74.50;102848.34;4976956;28;59895;-62
2022/01/28 07:09:23;;;;;;;;;63.25;45.50;;;;;7.78;74.56;102855.28;4977076;28;55391;-62
2022/01/28 07:11:49;;;;;;;;;62.00;46.25;;;;;7.78;74.65;102852.66;4977339;28;45468;-62
2022/01/28 07:14:14;;;;;;;;;62.75;45.75;;;;;7.77;74.38;102858.81;4977396;28;45241;-62
2022/01/28 07:16:39;;;;;;;;;63.75;48.00;;;;;7.77;74.13;102860.56;4976899;28;61502;-61
2022/01/28 07:19:05;;;;;;;;;62.50;48.75;;;;;7.76;74.25;102859.72;4977275;28;46063;-61
2022/01/28 07:21:30;;;;;;;;;63.00;46.00;;;;;7.75;74.19;102868.47;4959890;28;45284;-62
2022/01/28 07:23:56;;;;;;;;;61.75;46.25;;;;;7.72;74.23;102866.81;4977275;28;45745;-63
2022/01/28 07:26:21;;;;;;;;;63.75;47.00;;;;;7.73;74.05;102878.16;4959838;28;45544;-62
2022/01/28 07:28:48;;;;;;;;;60.50;43.50;;;;;7.72;74.01;102872.06;4976424;28;68917;-61
2022/01/28 07:31:15;;;;;;;;;58.50;44.00;;;;;7.71;74.11;102875.59;4977169;28;45286;-61
2022/01/28 07:33:41;;;;;;;;;66.50;46.00;;;;;7.71;73.75;102878.19;4977163;28;45368;-63
2022/01/28 07:36:06;;;;;;;;;61.50;47.00;;;;;7.71;73.61;102885.22;4976943;28;45521;-62
2022/01/28 07:38:32;;;;;;;;;55.75;45.25;;;;;7.70;73.37;102881.72;4976311;28;69920;-62
2022/01/28 07:40:58;;;;;;;;;61.25;47.75;;;;;7.66;73.30;102882.78;4976076;28;65864;-62
2022/01/28 07:43:24;;;;;;;;;55.25;44.00;;;;;7.63;73.40;102888.13;4977223;28;45471;-61
2022/01/28 07:45:50;;;;;;;;;60.25;46.00;;;;;7.61;73.51;102889.97;4977095;28;45427;-62
2022/01/28 07:48:15;;;;;;;;;53.50;41.00;;;;;7.61;73.53;102894.31;4975965;28;67667;-62
2022/01/28 07:50:40;;;;;;;;;61.00;45.00;;;;;7.60;73.21;102888.25;4958843;28;62967;-61
2022/01/28 07:53:08;;;;;;;;;60.50;45.25;;;;;7.57;73.52;102898.84;4975944;28;58207;-63
2022/01/28 07:55:33;;;;;;;;;60.00;47.50;;;;;7.55;73.30;102901.50;4976977;28;45619;-61
2022/01/28 07:57:59;;;;;;;;;65.00;47.25;;;;;7.54;73.50;102907.63;4976662;28;45318;-62
2022/01/28 08:00:26;;;;;;;;;56.75;44.75;;;;;7.53;73.41;102908.53;4976805;28;45338;-62
2022/01/28 08:02:52;;;;;;;;;61.75;45.50;;;;;7.52;73.52;102912.06;4959539;28;45352;-61
2022/01/28 08:05:17;;;;;;;;;65.00;49.50;;;;;7.51;73.44;102915.59;4959379;28;45505;-61
2022/01/28 08:07:44;;;;;;;;;65.25;48.50;;;;;7.53;73.46;102918.16;4976754;28;46599;-62
2022/01/28 08:10:09;;;;;;;;;66.00;49.25;;;;;7.52;73.60;102912.06;4976612;28;45252;-63
2022/01/28 08:12:48;;;;;;;;;62.25;46.25;;;;;7.51;73.65;102917.38;4976563;28;45180;-62
2022/01/28 08:15:14;;;;;;;;;61.00;45.00;;;;;7.52;73.66;102912.06;4959143;28;45553;-62
2022/01/28 08:17:39;;;;;;;;;67.25;48.50;;;;;7.54;73.69;102922.50;4976437;28;45505;-62
2022/01/28 08:20:05;;;;;;;;;62.50;46.00;;;;;7.53;73.64;102919.00;4976057;28;48151;-63
2022/01/28 08:22:31;;;;;;;;;61.00;48.25;;;;;7.55;73.76;102922.41;4958924;28;45367;-62
2022/01/28 08:24:56;;;;;;;;;63.75;50.25;;;;;7.55;73.86;102927.66;4976388;28;45342;-61
2022/01/28 08:27:21;;;;;;;;;67.75;49.50;;;;;7.56;73.86;102939.81;4976420;28;46048;-61
2022/01/28 08:29:47;;;;;;;;;63.50;49.00;;;;;7.57;73.96;102941.53;4976644;28;65705;-62
2022/01/28 08:32:12;;;;;;;;;73.25;54.25;;;;;7.59;74.09;102938.88;4978786;28;57000;-61
2022/01/28 08:34:37;;;;;;;;;74.75;53.50;;;;;7.62;74.19;102938.75;4978559;28;62006;-62
2022/01/28 08:37:04;;;;;;;;;67.00;52.00;;;;;7.63;73.97;102945.69;4962393;28;45402;-62
2022/01/28 08:39:31;;;;;;;;;75.00;56.00;;;;;7.65;73.97;102953.47;4979815;28;45686;-62
2022/01/28 08:41:56;;;;;;;;;69.25;54.00;;;;;7.68;73.96;102953.38;4962403;28;45334;-64
2022/01/28 08:44:21;;;;;;;;;64.00;48.50;;;;;7.69;73.80;102955.91;4979149;28;61294;-62
2022/01/28 08:46:47;;;;;;;;;70.00;50.00;;;;;7.72;73.70;102962.81;4979816;28;46347;-62
2022/01/28 08:49:12;;;;;;;;;64.75;49.75;;;;;7.76;73.77;102966.16;4979034;28;62638;-62
2022/01/28 08:51:38;;;;;;;;;67.00;50.25;;;;;7.77;73.88;102966.09;4979039;28;60363;-64
2022/01/28 08:54:03;;;;;;;;;67.50;50.50;;;;;7.80;73.77;102971.22;4979225;28;45492;-61
2022/01/28 08:56:28;;;;;;;;;68.25;53.25;;;;;7.83;73.50;102986.81;4979671;28;46222;-62
2022/01/28 08:58:54;;;;;;;;;68.25;51.25;;;;;7.85;73.42;102987.63;4978883;28;65165;-62
2022/01/28 09:01:19;;;;;;;;;65.50;50.00;;;;;7.87;73.29;102985.81;4978422;28;60754;-64
2022/01/28 09:03:45;;;;;;;;;64.50;49.25;;;;;7.91;73.28;102998.78;4979308;28;45596;-61
2022/01/28 09:06:11;;;;;;;;;63.00;47.25;;;;;7.93;73.28;102994.34;4979498;28;45630;-61
2022/01/28 09:08:37;;;;;;;;;60.75;48.25;;;;;7.95;73.12;103003.00;4979494;28;45271;-62
2022/01/28 09:13:46;;;;;;;;;62.50;47.75;;;;;7.99;72.96;103004.53;4979176;28;45346;-61
2022/01/28 09:16:11;;;;;;;;;65.50;49.75;;;;;7.98;72.83;102993.25;4961312;28;45542;-61
2022/01/28 09:18:37;;;;;;;;;60.25;46.75;;;;;8.01;72.91;102997.50;4978442;28;63142;-62
2022/01/28 09:21:02;;;;;;;;;57.25;48.25;;;;;8.03;72.97;103000.91;4978484;28;59322;-61
2022/01/28 09:23:27;;;;;;;;;57.50;45.00;;;;;8.06;72.78;103000.78;4979062;28;45429;-61
2022/01/28 09:25:53;;;;;;;;;57.25;44.50;;;;;8.07;72.59;103001.66;4978295;28;65051;-62
2022/01/28 09:28:18;;;;;;;;;55.00;44.75;;;;;8.09;72.58;103005.91;4979005;28;45176;-62
2022/01/28 09:30:43;;;;;;;;;60.00;43.50;;;;;8.11;72.65;103011.09;4960818;28;66043;-62
2022/01/28 09:33:09;;;;;;;;;56.00;44.75;;;;;8.14;72.51;103003.13;4977918;28;66283;-62
2022/01/28 09:35:35;;;;;;;;;59.00;44.50;;;;;8.14;72.61;103003.97;4961400;28;46557;-63
2022/01/28 09:38:00;;;;;;;;;53.50;42.00;;;;;8.19;72.53;103006.44;4961484;28;45362;-63
2022/01/28 09:40:25;;;;;;;;;54.75;43.00;;;;;8.20;72.31;103008.13;4960829;28;51322;-62
2022/01/28 09:42:53;;;;;;;;;57.50;42.25;;;;;8.24;72.49;103008.84;4978376;28;45306;-62
2022/01/28 09:45:23;;;;;;;;;52.75;40.50;;;;;8.27;72.18;103008.75;4978620;28;45424;-62
2022/01/28 09:47:52;;;;;;;;;63.00;44.00;;;;;8.29;72.08;103002.50;4979021;28;45653;-62
2022/01/28 09:50:17;;;;;;;;;56.50;42.50;;;;;8.32;72.20;102998.94;4979039;28;45412;-62
2022/01/28 09:52:42;;;;;;;;;53.25;41.50;;;;;8.35;72.00;103003.19;4978468;28;45401;-63
2022/01/28 09:55:08;;;;;;;;;62.00;43.75;;;;;8.37;71.72;103004.84;4977685;28;59414;-61
2022/01/28 09:57:33;;;;;;;;;54.50;42.50;;;;;8.38;71.51;103003.06;4978726;28;45359;-62
2022/01/28 09:59:59;;;;;;;;;58.50;43.75;;;;;8.38;71.66;103003.06;4978148;28;45811;-62
2022/01/28 10:02:46;;;;;;;;;59.00;44.75;;;;;8.39;71.30;103003.03;4978494;28;45334;-62
2022/01/28 10:05:25;;;;;;;;;71.50;56.00;;;;;8.40;71.34;103003.88;4960660;28;46725;-62
2022/01/28 10:08:00;;;;;;;;;95.00;87.75;;;;;8.40;71.36;103009.09;4961071;28;45319;-61
2022/01/28 10:10:26;;;;;;;;;79.50;60.00;;;;;8.39;71.54;103002.16;4978374;28;45175;-61
2022/01/28 10:13:12;;;;;;;;;62.50;47.25;;;;;8.42;71.75;103002.03;4960982;28;45374;-63
2022/01/28 10:15:53;;;;;;;;;60.00;44.00;;;;;8.45;71.76;103009.78;4961523;28;45525;-62
2022/01/28 10:18:18;;;;;;;;;62.00;48.00;;;;;8.49;71.65;103007.91;4962306;28;45640;-61
2022/01/28 10:20:44;;;;;;;;;61.75;46.00;;;;;8.54;71.75;103011.19;4960484;28;56332;-62
2022/01/28 10:23:11;;;;;;;;;62.25;46.25;;;;;8.58;71.67;103011.03;4978022;28;49695;-61
2022/01/28 10:25:38;;;;;;;;;59.00;48.50;;;;;8.61;71.75;103005.66;4977808;28;45562;-62
2022/01/28 10:28:08;;;;;;;;;61.50;46.25;;;;;8.65;71.48;103011.63;4977972;28;45948;-61
2022/01/28 10:30:38;;;;;;;;;62.00;47.25;;;;;8.69;71.68;103007.97;4977963;28;45385;-61
2022/01/28 10:33:17;;;;;;;;;62.75;47.00;;;;;8.74;71.39;103005.19;4960591;28;45444;-64
2022/01/28 10:35:55;;;;;;;;;59.50;43.25;;;;;8.76;71.25;103004.19;4977585;28;46478;-62
2022/01/28 10:38:31;;;;;;;;;56.00;44.75;;;;;8.84;70.81;103008.25;4977753;28;45471;-62
2022/01/28 10:41:09;;;;;;;;;66.75;48.50;;;;;8.93;71.18;103002.63;4960713;28;45268;-61
2022/01/28 10:43:48;;;;;;;;;66.50;50.50;;;;;9.01;71.18;103011.00;4978077;28;45600;-62
2022/01/28 10:46:23;;;;;;;;;64.25;49.00;;;;;9.08;71.19;103014.25;4960086;28;45414;-61
2022/01/28 10:48:56;;;;;;;;;60.75;46.50;;;;;9.14;70.90;103023.63;4977626;28;45790;-62
2022/01/28 10:51:23;;;;;;;;;56.25;45.50;;;;;9.22;70.67;103023.31;4945191;28;45403;-63
2022/01/28 10:54:08;;;;;;;;;63.75;46.25;;;;;9.24;70.27;103022.31;4977073;28;45592;-62
2022/01/28 10:56:55;;;;;;;;;59.25;44.25;;;;;9.27;70.21;103021.34;4977235;28;46487;-63
2022/01/28 10:59:47;;;;;;;;;65.75;48.75;;;;;9.30;70.08;103021.19;4960072;28;45274;-62
2022/01/28 11:02:12;;;;;;;;;64.50;48.00;;;;;9.30;70.10;103022.03;4956225;28;47427;-62
2022/01/28 11:04:38;;;;;;;;;62.25;46.50;;;;;9.32;70.21;103022.84;4960065;28;45272;-62
2022/01/28 11:07:04;;;;;;;;;61.50;46.25;;;;;9.35;69.99;103024.47;4976250;28;65878;-61
2022/01/28 11:09:30;;;;;;;;;58.75;46.25;;;;;9.39;69.99;103025.19;4959749;28;45452;-62
2022/01/28 11:11:55;;;;;;;;;65.25;49.25;;;;;9.42;69.69;103030.31;4977367;28;45433;-61
2022/01/28 11:14:21;;;;;;;;;64.00;49.50;;;;;9.44;69.54;103023.22;4977247;28;45303;-62
2022/01/28 11:16:47;;;;;;;;;61.00;47.75;;;;;9.46;69.41;103026.63;4959571;28;46048;-62
2022/01/28 11:19:17;;;;;;;;;56.25;45.00;;;;;9.48;69.40;103015.13;4959847;28;45295;-62
2022/01/28 11:22:04;;;;;;;;;59.75;43.75;;;;;9.52;69.06;103015.00;4960017;28;45334;-62
2022/01/28 11:24:47;;;;;;;;;66.75;48.00;;;;;9.51;68.51;103006.28;4960227;28;45466;-62
2022/01/28 11:27:25;;;;;;;;;64.50;48.75;;;;;9.53;68.60;103011.47;4977326;28;46509;-62
2022/01/28 11:30:15;;;;;;;;;61.00;47.00;;;;;9.53;68.58;103012.31;4943918;28;45693;-64
2022/01/28 11:33:00;;;;;;;;;60.50;46.50;;;;;9.56;68.41;103003.44;4961828;28;45303;-61
2022/01/28 11:35:27;;;;;;;;;62.75;47.00;;;;;9.56;68.54;103001.66;4977032;28;45331;-61
2022/01/28 11:37:56;;;;;;;;;57.25;43.50;;;;;9.56;68.22;102999.03;4959426;28;46376;-62
2022/01/28 11:40:22;;;;;;;;;62.25;47.75;;;;;9.57;68.29;102997.28;4975831;28;45388;-62
2022/01/28 11:42:47;;;;;;;;;56.00;44.75;;;;;9.57;68.53;103000.75;4941907;28;63768;-63
2022/01/28 11:45:13;;;;;;;;;65.50;48.50;;;;;9.59;68.14;102993.66;4958992;28;45486;-62
2022/01/28 11:47:40;;;;;;;;;59.25;46.25;;;;;9.57;68.36;102987.63;4976452;28;45421;-62
2022/01/28 11:50:10;;;;;;;;;60.75;46.25;;;;;9.57;68.42;102981.53;4976723;28;45789;-62
2022/01/28 11:52:41;;;;;;;;;56.75;41.25;;;;;9.56;67.81;102980.66;4976426;28;45500;-61
2022/01/28 11:55:16;;;;;;;;;49.25;40.75;;;;;9.58;67.69;102983.25;4976690;28;45342;-62
2022/01/28 11:57:51;;;;;;;;;54.25;38.50;;;;;9.57;67.36;102985.00;4976603;28;45397;-62
2022/01/28 12:00:33;;;;;;;;;45.50;37.75;;;;;9.57;67.40;102971.88;4976807;28;45877;-61
2022/01/28 12:02:58;;;;;;;;;48.00;38.25;;;;;9.58;67.06;102965.69;4960821;28;45369;-62
2022/01/28 12:05:30;;;;;;;;;56.25;44.50;;;;;9.58;67.08;102963.06;4975700;28;45314;-62
2022/01/28 12:07:56;;;;;;;;;43.75;33.50;;;;;9.59;66.92;102945.56;4976305;28;45686;-62
2022/01/28 12:10:23;;;;;;;;;42.25;31.50;;;;;9.60;66.88;102947.28;4958868;28;45433;-62
2022/01/28 12:12:57;;;;;;;;;50.75;40.25;;;;;9.61;66.45;102951.59;4942678;28;45376;-63
2022/01/28 12:15:24;;;;;;;;;46.00;34.00;;;;;9.63;66.38;102947.13;4945850;28;45430;-61
2022/01/28 12:18:06;;;;;;;;;44.25;38.00;;;;;9.64;65.66;102946.22;4982446;28;46127;-62
2022/01/28 12:20:39;;;;;;;;;43.75;34.75;;;;;9.65;65.97;102940.88;4951833;28;45906;-61
2022/01/28 12:23:25;;;;;;;;;40.25;31.75;;;;;9.71;65.16;102938.91;4960046;28;45220;-61
2022/01/28 12:25:54;;;;;;;;;44.75;30.75;;;;;9.73;64.88;102932.66;4976837;28;45296;-61
2022/01/28 12:28:30;;;;;;;;;43.00;32.75;;;;;9.77;65.26;102936.00;4959180;28;46073;-64
2022/01/28 12:31:03;;;;;;;;;40.75;32.75;;;;;9.81;64.98;102916.53;4957955;28;45880;-64
2022/01/28 12:33:36;;;;;;;;;43.75;34.75;;;;;9.89;64.37;102911.78;4942965;28;45461;-63
2022/01/28 12:36:12;;;;;;;;;35.00;27.25;;;;;9.95;63.56;102911.50;4976684;28;45567;-63
2022/01/28 12:38:43;;;;;;;;;33.00;30.25;;;;;9.97;63.74;102913.19;4959189;28;46207;-62
2022/01/28 12:41:09;;;;;;;;;38.00;29.50;;;;;9.99;63.49;102908.72;4959572;28;45880;-63
2022/01/28 12:43:37;;;;;;;;;30.25;27.00;;;;;10.01;62.78;102927.91;4976640;28;45213;-64
2022/01/28 12:46:07;;;;;;;;;26.00;22.25;;;;;10.03;62.69;102939.19;4976478;28;45516;-63
2022/01/28 12:48:33;;;;;;;;;27.75;25.25;;;;;10.04;62.23;102925.13;4976405;28;46243;-62
2022/01/28 12:50:59;;;;;;;;;30.50;23.25;;;;;10.03;61.68;102926.03;4942836;28;45528;-63
2022/01/28 12:53:54;;;;;;;;;26.50;25.50;;;;;10.03;62.10;102947.06;4958868;28;45427;-62
2022/01/28 12:56:40;;;;;;;;;29.50;26.50;;;;;10.03;61.19;102947.06;4959538;28;45485;-63
2022/01/28 12:59:06;;;;;;;;;25.75;23.25;;;;;10.04;61.63;102938.25;4975581;28;45385;-63
2022/01/28 13:01:31;;;;;;;;;30.25;22.00;;;;;10.04;61.05;102933.00;4958886;28;45292;-63
2022/01/28 13:04:16;;;;;;;;;26.75;22.75;;;;;10.02;61.12;102926.97;4958827;28;45243;-65